Boreham, United Kingdom
Current Conditions -  °F | °C
As of 6:50 PM on Thursday 27 Nov 2014 (Local Time) from EGDM Reporting Station
Haze Haze  
Wind Chill: 40°   Ceiling: Unl
Heat Index: 43°   Visibility: 2.8mi
Dew Point: 43°   Wind: 5mph
Humidity: 100%   Direction: 80°E
Pressure: 29.53"   Gusts: NA
Location:  51.2°N, 2.17°W
Report Text: EGDM 271850Z AUTO 08004KT 4500 BR FEW012/// 06/06 Q1000
Loading
Personal Weather Stations






























Interactive Weather Map New forecast layout! Learn more

10-Day Weather Forecast

Advertisements
Track Severe Weather on mobile